createdAt,value
2023-04-12T00:00:05.112Z,450.00
2023-04-12T00:01:05.081Z,451.00
2023-04-12T00:02:05.110Z,450.00
2023-04-12T00:03:05.118Z,448.00
2023-04-12T00:04:05.210Z,448.00
2023-04-12T00:05:05.098Z,448.00
2023-04-12T00:06:05.014Z,444.00
2023-04-12T00:07:04.982Z,443.00
2023-04-12T00:08:05.007Z,442.00
2023-04-12T00:09:04.954Z,444.00
2023-04-12T00:10:04.966Z,444.00
2023-04-12T00:11:04.970Z,444.00
2023-04-12T00:12:04.977Z,446.00
2023-04-12T00:13:04.985Z,446.00
2023-04-12T00:14:05.015Z,447.00
2023-04-12T00:15:06.663Z,442.00
2023-04-12T00:16:05.132Z,445.00
2023-04-12T00:17:04.982Z,445.00
2023-04-12T00:18:04.993Z,446.00
2023-04-12T00:19:04.960Z,445.00
2023-04-12T00:20:04.959Z,447.00
2023-04-12T00:21:04.940Z,445.00
2023-04-12T00:22:04.924Z,446.00
2023-04-12T00:23:04.932Z,445.00
2023-04-12T00:24:04.914Z,447.00
2023-04-12T00:25:04.916Z,445.00
2023-04-12T00:26:04.892Z,445.00
2023-04-12T00:27:04.866Z,446.00
2023-04-12T00:28:04.850Z,446.00
2023-04-12T00:29:04.841Z,445.00
2023-04-12T00:30:04.829Z,443.00
2023-04-12T00:31:04.858Z,444.00
2023-04-12T00:32:04.845Z,446.00
2023-04-12T00:33:04.869Z,447.00
2023-04-12T00:34:04.800Z,448.00
2023-04-12T00:35:04.778Z,450.00
2023-04-12T00:36:04.810Z,446.00
2023-04-12T00:37:04.744Z,447.00
2023-04-12T00:38:04.726Z,446.00
2023-04-12T00:39:04.724Z,446.00
2023-04-12T00:40:04.720Z,444.00
2023-04-12T00:41:04.695Z,444.00
2023-04-12T00:42:04.678Z,444.00
2023-04-12T00:43:04.660Z,445.00
2023-04-12T00:44:04.649Z,441.00
2023-04-12T00:45:04.721Z,439.00
2023-04-12T00:46:04.611Z,442.00
2023-04-12T00:47:04.709Z,438.00
2023-04-12T00:48:04.629Z,437.00
2023-04-12T00:49:04.558Z,440.00
2023-04-12T00:50:04.551Z,437.00
2023-04-12T00:51:04.537Z,440.00
2023-04-12T00:52:04.532Z,442.00
2023-04-12T00:53:04.518Z,442.00
2023-04-12T00:54:04.509Z,441.00
2023-04-12T00:55:04.498Z,439.00
2023-04-12T00:56:04.475Z,440.00
2023-04-12T00:57:04.463Z,440.00
2023-04-12T00:58:04.457Z,438.00
2023-04-12T00:59:04.452Z,437.00
2023-04-12T01:00:04.435Z,438.00
2023-04-12T01:01:04.450Z,438.00
2023-04-12T01:02:04.498Z,440.00
2023-04-12T01:03:04.527Z,441.00
2023-04-12T01:04:04.422Z,440.00
2023-04-12T01:05:04.378Z,440.00
2023-04-12T01:06:04.410Z,441.00
2023-04-12T01:07:04.443Z,441.00
2023-04-12T01:08:04.356Z,441.00
2023-04-12T01:09:04.358Z,440.00
2023-04-12T01:10:04.330Z,437.00
2023-04-12T01:11:04.344Z,437.00
2023-04-12T01:12:04.322Z,440.00
2023-04-12T01:13:04.330Z,439.00
2023-04-12T01:14:04.339Z,438.00
2023-04-12T01:15:04.300Z,439.00
2023-04-12T01:16:04.342Z,439.00
2023-04-12T01:17:04.282Z,442.00
2023-04-12T01:18:04.344Z,441.00
2023-04-12T01:19:04.306Z,442.00
2023-04-12T01:20:05.845Z,441.00
2023-04-12T01:21:04.283Z,441.00
2023-04-12T01:22:04.290Z,439.00
2023-04-12T01:23:04.270Z,439.00
2023-04-12T01:24:04.254Z,440.00
2023-04-12T01:25:04.254Z,440.00
2023-04-12T01:26:04.278Z,438.00
2023-04-12T01:27:04.220Z,437.00
2023-04-12T01:28:04.235Z,437.00
2023-04-12T01:29:04.177Z,436.00
2023-04-12T01:30:04.208Z,434.00
2023-04-12T01:31:04.199Z,435.00
2023-04-12T01:32:04.175Z,435.00
2023-04-12T01:33:04.155Z,436.00
2023-04-12T01:34:04.109Z,435.00
2023-04-12T01:35:04.089Z,435.00
2023-04-12T01:36:05.594Z,434.00
2023-04-12T01:37:04.071Z,434.00
2023-04-12T01:38:04.084Z,437.00
2023-04-12T01:39:04.025Z,438.00
2023-04-12T01:40:04.056Z,435.00
2023-04-12T01:41:04.007Z,438.00
2023-04-12T01:42:04.000Z,437.00
2023-04-12T01:43:03.976Z,436.00
2023-04-12T01:44:03.966Z,436.00
2023-04-12T01:45:03.975Z,435.00
2023-04-12T01:46:04.019Z,435.00
2023-04-12T01:47:03.916Z,434.00
2023-04-12T01:48:03.970Z,431.00
2023-04-12T01:49:03.937Z,432.00
2023-04-12T01:50:03.940Z,430.00
2023-04-12T01:51:03.941Z,431.00
2023-04-12T01:52:03.953Z,432.00
2023-04-12T01:53:03.966Z,432.00
2023-04-12T01:54:03.981Z,431.00
2023-04-12T01:55:03.992Z,429.00
2023-04-12T01:56:04.002Z,429.00
2023-04-12T01:57:04.004Z,431.00
2023-04-12T01:58:04.046Z,433.00
2023-04-12T01:59:04.057Z,433.00
2023-04-12T02:00:04.055Z,436.00
2023-04-12T02:01:04.128Z,436.00
2023-04-12T02:02:04.161Z,435.00
2023-04-12T02:03:04.352Z,435.00
2023-04-12T02:04:04.212Z,433.00
2023-04-12T02:05:04.146Z,432.00
2023-04-12T02:06:04.187Z,431.00
2023-04-12T02:07:04.233Z,431.00
2023-04-12T02:08:04.217Z,430.00
2023-04-12T02:09:04.224Z,430.00
2023-04-12T02:10:04.266Z,430.00
2023-04-12T02:11:04.260Z,430.00
2023-04-12T02:12:04.266Z,429.00
2023-04-12T02:13:04.356Z,430.00
2023-04-12T02:14:04.293Z,431.00
2023-04-12T02:15:04.318Z,430.00
2023-04-12T02:16:04.333Z,429.00
2023-04-12T02:17:04.512Z,428.00
2023-04-12T02:18:04.417Z,428.00
2023-04-12T02:19:04.364Z,428.00
2023-04-12T02:20:04.376Z,432.00
2023-04-12T02:21:04.414Z,434.00
2023-04-12T02:22:04.398Z,437.00
2023-04-12T02:23:04.400Z,437.00
2023-04-12T02:24:04.411Z,437.00
2023-04-12T02:25:04.414Z,437.00
2023-04-12T02:26:04.419Z,436.00
2023-04-12T02:27:04.455Z,436.00
2023-04-12T02:28:04.455Z,434.00
2023-04-12T02:29:04.453Z,431.00
2023-04-12T02:30:04.478Z,432.00
2023-04-12T02:31:04.516Z,433.00
2023-04-12T02:32:04.493Z,433.00
2023-04-12T02:33:04.562Z,434.00
2023-04-12T02:34:04.544Z,431.00
2023-04-12T02:35:04.521Z,431.00
2023-04-12T02:36:04.546Z,430.00
2023-04-12T02:37:04.542Z,430.00
2023-04-12T02:38:04.562Z,430.00
2023-04-12T02:39:04.600Z,429.00
2023-04-12T02:40:04.593Z,428.00
2023-04-12T02:41:04.607Z,429.00
2023-04-12T02:42:04.633Z,431.00
2023-04-12T02:43:04.637Z,431.00
2023-04-12T02:44:04.650Z,430.00
2023-04-12T02:45:04.668Z,428.00
2023-04-12T02:46:04.724Z,429.00
2023-04-12T02:47:04.694Z,429.00
2023-04-12T02:48:04.821Z,427.00
2023-04-12T02:49:04.726Z,427.00
2023-04-12T02:50:04.729Z,428.00
2023-04-12T02:51:04.729Z,428.00
2023-04-12T02:52:04.757Z,430.00
2023-04-12T02:53:04.753Z,432.00
2023-04-12T02:54:04.769Z,431.00
2023-04-12T02:55:04.777Z,430.00
2023-04-12T02:56:06.618Z,431.00
2023-04-12T02:57:04.811Z,429.00
2023-04-12T02:58:04.811Z,431.00
2023-04-12T02:59:04.831Z,429.00
2023-04-12T03:00:04.837Z,428.00
2023-04-12T03:01:04.953Z,428.00
2023-04-12T03:02:05.050Z,429.00
2023-04-12T03:03:05.060Z,429.00
2023-04-12T03:04:04.926Z,429.00
2023-04-12T03:05:04.861Z,430.00
2023-04-12T03:06:04.848Z,431.00
2023-04-12T03:07:04.845Z,433.00
2023-04-12T03:08:04.832Z,431.00
2023-04-12T03:09:04.826Z,430.00
2023-04-12T03:10:04.818Z,431.00
2023-04-12T03:11:04.832Z,431.00
2023-04-12T03:12:04.815Z,432.00
2023-04-12T03:13:04.832Z,431.00
2023-04-12T03:14:04.830Z,430.00
2023-04-12T03:15:04.793Z,431.00
2023-04-12T03:16:04.825Z,431.00
2023-04-12T03:17:04.780Z,432.00
2023-04-12T03:18:04.813Z,433.00
2023-04-12T03:19:04.741Z,433.00
2023-04-12T03:20:04.736Z,434.00
2023-04-12T03:21:04.728Z,434.00
2023-04-12T03:22:04.727Z,433.00
2023-04-12T03:23:04.711Z,430.00
2023-04-12T03:24:04.689Z,427.00
2023-04-12T03:25:04.684Z,427.00
2023-04-12T03:26:04.663Z,427.00
2023-04-12T03:27:04.655Z,425.00
2023-04-12T03:28:04.638Z,423.00
2023-04-12T03:29:04.635Z,423.00
2023-04-12T03:30:04.615Z,423.00
2023-04-12T03:31:04.661Z,425.00
2023-04-12T03:32:04.599Z,425.00
2023-04-12T03:33:04.632Z,424.00
2023-04-12T03:34:04.593Z,423.00
2023-04-12T03:35:04.591Z,425.00
2023-04-12T03:36:04.597Z,425.00
2023-04-12T03:37:04.675Z,425.00
2023-04-12T03:38:04.590Z,424.00
2023-04-12T03:39:04.608Z,424.00
2023-04-12T03:40:04.621Z,424.00
2023-04-12T03:41:04.625Z,425.00
2023-04-12T03:42:04.650Z,427.00
2023-04-12T03:43:04.645Z,428.00
2023-04-12T03:44:04.656Z,427.00
2023-04-12T03:45:04.668Z,428.00
2023-04-12T03:46:04.732Z,428.00
2023-04-12T03:47:04.750Z,428.00
2023-04-12T03:48:04.828Z,425.00
2023-04-12T03:49:04.720Z,423.00
2023-04-12T03:50:11.543Z,426.00
2023-04-12T03:51:05.715Z,425.00
2023-04-12T03:52:04.763Z,427.00
2023-04-12T03:53:04.720Z,427.00
2023-04-12T03:54:04.793Z,425.00
2023-04-12T03:55:04.696Z,424.00
2023-04-12T03:56:04.682Z,422.00
2023-04-12T03:57:04.684Z,420.00
2023-04-12T03:58:04.667Z,423.00
2023-04-12T03:59:04.659Z,421.00
2023-04-12T04:00:04.654Z,423.00
2023-04-12T04:01:04.646Z,424.00
2023-04-12T04:02:04.696Z,426.00
2023-04-12T04:03:04.671Z,424.00
2023-04-12T04:04:04.735Z,423.00
2023-04-12T04:05:04.623Z,422.00
2023-04-12T04:06:04.590Z,418.00
2023-04-12T04:07:04.572Z,420.00
2023-04-12T04:08:04.566Z,421.00
2023-04-12T04:09:04.539Z,419.00
2023-04-12T04:10:04.521Z,420.00
2023-04-12T04:11:05.132Z,420.00
2023-04-12T04:12:04.503Z,422.00
2023-04-12T04:13:04.495Z,422.00
2023-04-12T04:14:04.488Z,422.00
2023-04-12T04:15:04.509Z,423.00
2023-04-12T04:16:04.591Z,425.00
2023-04-12T04:17:04.548Z,427.00
2023-04-12T04:18:04.610Z,424.00
2023-04-12T04:19:04.589Z,422.00
2023-04-12T04:20:04.683Z,423.00
2023-04-12T04:21:04.626Z,423.00
2023-04-12T04:22:04.672Z,422.00
2023-04-12T04:23:04.677Z,423.00
2023-04-12T04:24:04.687Z,423.00
2023-04-12T04:25:04.715Z,421.00
2023-04-12T04:26:04.746Z,422.00
2023-04-12T04:27:04.763Z,421.00
2023-04-12T04:28:04.778Z,420.00
2023-04-12T04:29:04.810Z,419.00
2023-04-12T04:30:04.827Z,417.00
2023-04-12T04:31:04.850Z,417.00
2023-04-12T04:32:04.968Z,421.00
2023-04-12T04:33:05.016Z,420.00
2023-04-12T04:34:04.928Z,420.00
2023-04-12T04:35:04.966Z,419.00
2023-04-12T04:36:05.037Z,420.00
2023-04-12T04:37:05.018Z,419.00
2023-04-12T04:38:05.043Z,417.00
2023-04-12T04:39:05.065Z,416.00
2023-04-12T04:40:05.085Z,416.00
2023-04-12T04:41:05.114Z,418.00
2023-04-12T04:42:05.139Z,418.00
2023-04-12T04:43:07.071Z,417.00
2023-04-12T04:44:05.148Z,414.00
2023-04-12T04:45:05.160Z,413.00
2023-04-12T04:46:05.205Z,413.00
2023-04-12T04:47:05.149Z,413.00
2023-04-12T04:48:05.224Z,413.00
2023-04-12T04:49:05.153Z,414.00
2023-04-12T04:50:05.151Z,416.00
2023-04-12T04:51:05.170Z,414.00
2023-04-12T04:52:05.145Z,413.00
2023-04-12T04:53:05.135Z,412.00
2023-04-12T04:54:05.126Z,411.00
2023-04-12T04:55:07.405Z,415.00
2023-04-12T04:56:05.140Z,418.00
2023-04-12T04:57:05.109Z,418.00
2023-04-12T04:58:05.099Z,417.00
2023-04-12T04:59:05.090Z,417.00
2023-04-12T05:00:05.073Z,417.00
2023-04-12T05:01:05.108Z,418.00
2023-04-12T05:02:05.152Z,419.00
2023-04-12T05:03:05.185Z,419.00
2023-04-12T05:04:05.248Z,419.00
2023-04-12T05:05:05.053Z,420.00
2023-04-12T05:06:05.040Z,421.00
2023-04-12T05:07:05.068Z,421.00
2023-04-12T05:08:05.022Z,421.00
2023-04-12T05:09:05.014Z,419.00
2023-04-12T05:10:05.005Z,418.00
2023-04-12T05:11:05.019Z,418.00
2023-04-12T05:12:04.991Z,415.00
2023-04-12T05:13:04.994Z,416.00
2023-04-12T05:14:04.979Z,416.00
2023-04-12T05:15:11.699Z,417.00
2023-04-12T05:16:05.985Z,417.00
2023-04-12T05:17:05.009Z,417.00
2023-04-12T05:18:04.991Z,419.00
2023-04-12T05:19:04.965Z,417.00
2023-04-12T05:20:04.940Z,417.00
2023-04-12T05:21:04.942Z,416.00
2023-04-12T05:22:04.924Z,415.00
2023-04-12T05:23:04.910Z,413.00
2023-04-12T05:24:04.899Z,412.00
2023-04-12T05:25:04.896Z,412.00
2023-04-12T05:26:04.878Z,414.00
2023-04-12T05:27:04.904Z,415.00
2023-04-12T05:28:04.855Z,414.00
2023-04-12T05:29:04.845Z,413.00
2023-04-12T05:30:04.878Z,415.00
2023-04-12T05:31:04.919Z,413.00
2023-04-12T05:32:04.889Z,411.00
2023-04-12T05:33:04.991Z,411.00
2023-04-12T05:34:04.966Z,409.00
2023-04-12T05:35:04.952Z,409.00
2023-04-12T05:36:05.028Z,413.00
2023-04-12T05:37:05.014Z,424.00
2023-04-12T05:38:05.022Z,440.00
2023-04-12T05:39:05.034Z,457.00
2023-04-12T05:40:05.070Z,467.00
2023-04-12T05:41:05.039Z,479.00
2023-04-12T05:42:05.061Z,489.00
2023-04-12T05:43:05.101Z,535.00
2023-04-12T05:44:05.049Z,578.00
2023-04-12T05:45:05.033Z,602.00
2023-04-12T05:46:05.098Z,617.00
2023-04-12T05:47:05.015Z,639.00
2023-04-12T05:48:05.068Z,657.00
2023-04-12T05:49:04.994Z,668.00
2023-04-12T05:50:06.887Z,693.00
2023-04-12T05:51:04.947Z,713.00
2023-04-12T05:52:04.929Z,768.00
2023-04-12T05:53:04.922Z,797.00
2023-04-12T05:54:04.893Z,810.00
2023-04-12T05:55:04.918Z,822.00
2023-04-12T05:56:04.877Z,833.00
2023-04-12T05:57:04.864Z,900.00
2023-04-12T05:58:04.904Z,915.00
2023-04-12T05:59:04.830Z,924.00
2023-04-12T06:00:04.836Z,937.00
2023-04-12T06:01:04.874Z,991.00
2023-04-12T06:02:04.817Z,1002.00
2023-04-12T06:03:05.004Z,1043.00
2023-04-12T06:04:04.853Z,1063.00
2023-04-12T06:05:04.833Z,1073.00
2023-04-12T06:06:04.735Z,1120.00
2023-04-12T06:07:04.741Z,1115.00
2023-04-12T06:08:04.821Z,1120.00
2023-04-12T06:09:04.868Z,1126.00
2023-04-12T06:10:04.847Z,1131.00
2023-04-12T06:11:04.832Z,1157.00
2023-04-12T06:12:04.830Z,1207.00
2023-04-12T06:13:04.845Z,1212.00
2023-04-12T06:14:04.894Z,1222.00
2023-04-12T06:15:04.809Z,1218.00
2023-04-12T06:16:04.796Z,1216.00
2023-04-12T06:17:04.824Z,1214.00
2023-04-12T06:18:04.763Z,1218.00
2023-04-12T06:19:04.751Z,1227.00
2023-04-12T06:20:04.742Z,1315.00
2023-04-12T06:21:04.725Z,1298.00
2023-04-12T06:22:04.758Z,1288.00
2023-04-12T06:23:04.869Z,1289.00
2023-04-12T06:24:04.808Z,1292.00
2023-04-12T06:25:04.844Z,1307.00
2023-04-12T06:26:04.867Z,1319.00
2023-04-12T06:27:04.872Z,1337.00
2023-04-12T06:28:04.938Z,1352.00
2023-04-12T06:29:04.955Z,1395.00
2023-04-12T06:30:04.980Z,1325.00
2023-04-12T06:31:05.097Z,1202.00
2023-04-12T06:32:05.034Z,1158.00
2023-04-12T06:33:05.074Z,1072.00
2023-04-12T06:34:05.122Z,1003.00
2023-04-12T06:35:05.189Z,990.00
2023-04-12T06:36:05.374Z,960.00
2023-04-12T06:37:05.434Z,948.00
2023-04-12T06:38:05.333Z,915.00
2023-04-12T06:39:05.401Z,924.00
2023-04-12T06:40:05.405Z,866.00
2023-04-12T06:41:05.436Z,871.00
2023-04-12T06:42:05.440Z,969.00
2023-04-12T06:43:05.489Z,975.00
2023-04-12T06:44:05.633Z,980.00
2023-04-12T06:45:05.530Z,1008.00
2023-04-12T06:46:05.580Z,1043.00
2023-04-12T06:47:05.732Z,1050.00
2023-04-12T06:48:06.079Z,1109.00
2023-04-12T06:49:05.729Z,1130.00
2023-04-12T06:50:05.705Z,1131.00
2023-04-12T06:51:05.666Z,1138.00
2023-04-12T06:52:05.652Z,1154.00
2023-04-12T06:53:05.635Z,1171.00
2023-04-12T06:54:05.617Z,1178.00
2023-04-12T06:55:05.634Z,1202.00
2023-04-12T06:56:05.564Z,1229.00
2023-04-12T06:57:05.546Z,1241.00
2023-04-12T06:58:05.529Z,1265.00
2023-04-12T06:59:05.518Z,1314.00
2023-04-12T07:00:05.515Z,1327.00
2023-04-12T07:01:05.612Z,1357.00
2023-04-12T07:02:05.638Z,1372.00
2023-04-12T07:03:05.745Z,1384.00
2023-04-12T07:04:05.710Z,1410.00
2023-04-12T07:05:05.616Z,1410.00
2023-04-12T07:06:17.256Z,1402.00
2023-04-12T07:07:06.639Z,1390.00
2023-04-12T07:08:05.619Z,1375.00
2023-04-12T07:09:05.583Z,1302.00
2023-04-12T07:10:05.592Z,1189.00
2023-04-12T07:11:19.681Z,1306.00
2023-04-12T07:12:06.551Z,1336.00
2023-04-12T07:13:05.512Z,1310.00
2023-04-12T07:14:05.534Z,1298.00
2023-04-12T07:15:05.586Z,1296.00
2023-04-12T07:16:05.548Z,1292.00
2023-04-12T07:17:05.465Z,1246.00
2023-04-12T07:18:05.513Z,1244.00
2023-04-12T07:19:05.448Z,1249.00
2023-04-12T07:20:05.474Z,1250.00
2023-04-12T07:21:05.411Z,1248.00
2023-04-12T07:22:05.438Z,1245.00
2023-04-12T07:23:05.391Z,1242.00
2023-04-12T07:24:05.432Z,1235.00
2023-04-12T07:25:05.344Z,1221.00
2023-04-12T07:26:05.532Z,1210.00
2023-04-12T07:27:05.308Z,1203.00
2023-04-12T07:28:07.012Z,1185.00
2023-04-12T07:29:05.286Z,1179.00
2023-04-12T07:30:05.872Z,1162.00
2023-04-12T07:31:05.588Z,1144.00
2023-04-12T07:32:05.228Z,1137.00
2023-04-12T07:33:16.176Z,1111.00
2023-04-12T07:34:06.345Z,1043.00
2023-04-12T07:35:05.192Z,1052.00
2023-04-12T07:36:05.185Z,1118.00
2023-04-12T07:37:05.143Z,1129.00
2023-04-12T07:38:05.902Z,1130.00
2023-04-12T07:39:05.122Z,1128.00
2023-04-12T07:40:05.106Z,1107.00
2023-04-12T07:41:05.063Z,1077.00
2023-04-12T07:42:05.066Z,1091.00
2023-04-12T07:43:05.045Z,1067.00
2023-04-12T07:44:05.144Z,1083.00
2023-04-12T07:45:05.086Z,1085.00
2023-04-12T07:46:05.097Z,1090.00
2023-04-12T07:47:04.934Z,1095.00
2023-04-12T07:48:04.960Z,1097.00
2023-04-12T07:49:04.951Z,1101.00
2023-04-12T07:50:04.878Z,1028.00
2023-04-12T07:51:04.894Z,1052.00
2023-04-12T07:52:04.903Z,1081.00
2023-04-12T07:53:04.779Z,1072.00
2023-04-12T07:54:04.802Z,1063.00
2023-04-12T07:55:05.390Z,1069.00
2023-04-12T07:56:05.401Z,1079.00
2023-04-12T07:57:05.372Z,1097.00
2023-04-12T07:58:04.713Z,1121.00
2023-04-12T07:59:04.728Z,1118.00
2023-04-12T08:00:04.756Z,1093.00
2023-04-12T08:01:04.686Z,1091.00
2023-04-12T08:02:04.688Z,1105.00
2023-04-12T08:03:05.089Z,1123.00
2023-04-12T08:04:04.798Z,1125.00
2023-04-12T08:05:04.601Z,1117.00
2023-04-12T08:06:04.670Z,1105.00
2023-04-12T08:07:04.542Z,1097.00
2023-04-12T08:08:04.529Z,1100.00
2023-04-12T08:09:04.509Z,1104.00
2023-04-12T08:10:04.529Z,1104.00
2023-04-12T08:11:04.463Z,1098.00
2023-04-12T08:12:04.435Z,1089.00
2023-04-12T08:13:04.395Z,1085.00
2023-04-12T08:14:04.413Z,1084.00
2023-04-12T08:15:05.410Z,1084.00
2023-04-12T08:16:04.424Z,1086.00
2023-04-12T08:17:04.493Z,1088.00
2023-04-12T08:18:04.486Z,1091.00
2023-04-12T08:19:04.341Z,1084.00
2023-04-12T08:20:04.321Z,1055.00
2023-04-12T08:21:04.207Z,1072.00
2023-04-12T08:22:04.225Z,1076.00
2023-04-12T08:23:04.142Z,1075.00
2023-04-12T08:24:04.181Z,1076.00
2023-04-12T08:25:04.423Z,1079.00
2023-04-12T08:26:04.208Z,1069.00
2023-04-12T08:27:04.217Z,1037.00
2023-04-12T08:28:04.268Z,1046.00
2023-04-12T08:29:04.231Z,1054.00
2023-04-12T08:30:04.253Z,1064.00
2023-04-12T08:31:04.268Z,1060.00
2023-04-12T08:32:04.267Z,1077.00
2023-04-12T08:33:04.349Z,1073.00
2023-04-12T08:34:04.332Z,1071.00
2023-04-12T08:35:04.503Z,1070.00
2023-04-12T08:36:04.366Z,1069.00
2023-04-12T08:37:04.296Z,1065.00
2023-04-12T08:38:04.326Z,1061.00
2023-04-12T08:39:04.340Z,1052.00
2023-04-12T08:40:04.343Z,1041.00
2023-04-12T08:41:04.339Z,1029.00
2023-04-12T08:42:04.380Z,1008.00
2023-04-12T08:43:04.370Z,998.00
2023-04-12T08:44:04.485Z,991.00
2023-04-12T08:45:04.455Z,985.00
2023-04-12T08:46:04.428Z,960.00
2023-04-12T08:47:04.430Z,954.00
2023-04-12T08:48:04.449Z,950.00
2023-04-12T08:49:04.363Z,949.00
2023-04-12T08:50:04.367Z,951.00
2023-04-12T08:51:04.358Z,944.00
2023-04-12T08:52:04.322Z,936.00
2023-04-12T08:53:04.325Z,922.00
2023-04-12T08:54:04.328Z,874.00
2023-04-12T08:55:04.298Z,881.00
2023-04-12T08:56:04.266Z,892.00
2023-04-12T08:57:04.236Z,900.00
2023-04-12T08:58:04.231Z,906.00
2023-04-12T08:59:04.194Z,904.00
2023-04-12T09:00:04.322Z,904.00
2023-04-12T09:01:04.171Z,904.00
2023-04-12T09:02:04.298Z,899.00
2023-04-12T09:03:04.627Z,896.00
2023-04-12T09:04:04.631Z,891.00
2023-04-12T09:05:04.411Z,891.00
2023-04-12T09:06:04.240Z,891.00
2023-04-12T09:07:04.236Z,890.00
2023-04-12T09:08:04.221Z,884.00
2023-04-12T09:09:04.944Z,880.00
2023-04-12T09:10:04.288Z,878.00
2023-04-12T09:11:04.358Z,875.00
2023-04-12T09:12:04.345Z,867.00
2023-04-12T09:13:04.407Z,878.00
2023-04-12T09:14:04.426Z,863.00
2023-04-12T09:15:04.444Z,863.00
2023-04-12T09:16:04.521Z,864.00
2023-04-12T09:17:04.451Z,860.00
2023-04-12T09:18:04.423Z,858.00
2023-04-12T09:19:04.429Z,845.00
2023-04-12T09:20:04.406Z,838.00
2023-04-12T09:21:04.352Z,832.00
2023-04-12T09:22:04.336Z,826.00
2023-04-12T09:23:04.310Z,825.00
2023-04-12T09:24:04.281Z,824.00
2023-04-12T09:25:04.269Z,823.00
2023-04-12T09:26:04.240Z,822.00
2023-04-12T09:27:04.208Z,821.00
2023-04-12T09:28:04.231Z,817.00
2023-04-12T09:29:04.167Z,815.00
2023-04-12T09:30:04.166Z,811.00
2023-04-12T09:31:04.331Z,811.00
2023-04-12T09:32:04.193Z,808.00
2023-04-12T09:33:04.194Z,804.00
2023-04-12T09:34:04.057Z,801.00
2023-04-12T09:35:04.066Z,800.00
2023-04-12T09:36:04.132Z,794.00
2023-04-12T09:37:04.183Z,793.00
2023-04-12T09:38:04.163Z,788.00
2023-04-12T09:39:04.239Z,790.00
2023-04-12T09:40:04.322Z,788.00
2023-04-12T09:41:04.260Z,785.00
2023-04-12T09:42:04.274Z,783.00
2023-04-12T09:43:04.447Z,791.00
2023-04-12T09:44:04.528Z,811.00
2023-04-12T09:45:04.354Z,830.00
2023-04-12T09:46:04.391Z,901.00
2023-04-12T09:47:04.416Z,937.00
2023-04-12T09:48:04.525Z,958.00
2023-04-12T09:49:04.533Z,981.00
2023-04-12T09:50:04.509Z,1020.00
2023-04-12T09:51:04.551Z,1087.00
2023-04-12T09:52:04.532Z,1082.00
2023-04-12T09:53:04.538Z,1069.00
2023-04-12T09:54:04.509Z,1042.00
2023-04-12T09:55:04.505Z,997.00
2023-04-12T09:56:04.469Z,1009.00
2023-04-12T09:57:04.550Z,1022.00
2023-04-12T09:58:04.474Z,1023.00
2023-04-12T09:59:04.530Z,1023.00
2023-04-12T10:00:04.558Z,1024.00
2023-04-12T10:01:04.559Z,1018.00
2023-04-12T10:02:04.743Z,978.00
2023-04-12T10:03:04.654Z,971.00
2023-04-12T10:04:04.964Z,968.00
2023-04-12T10:05:04.667Z,961.00
2023-04-12T10:06:04.533Z,964.00
2023-04-12T10:07:04.534Z,965.00
2023-04-12T10:08:04.526Z,967.00
2023-04-12T10:09:04.585Z,967.00
2023-04-12T10:10:04.572Z,969.00
2023-04-12T10:11:04.591Z,963.00
2023-04-12T10:12:04.564Z,957.00
2023-04-12T10:13:04.549Z,933.00
2023-04-12T10:14:04.573Z,908.00
2023-04-12T10:15:04.618Z,917.00
2023-04-12T10:16:04.675Z,918.00
2023-04-12T10:17:04.716Z,925.00
2023-04-12T10:18:04.658Z,928.00
2023-04-12T10:19:04.692Z,925.00
2023-04-12T10:20:04.679Z,923.00
2023-04-12T10:21:04.700Z,924.00
2023-04-12T10:22:04.752Z,919.00
2023-04-12T10:23:04.695Z,910.00
2023-04-12T10:24:04.703Z,901.00
2023-04-12T10:25:04.715Z,880.00
2023-04-12T10:26:04.748Z,872.00
2023-04-12T10:27:04.775Z,878.00
2023-04-12T10:28:04.833Z,873.00
2023-04-12T10:29:04.776Z,866.00
2023-04-12T10:30:04.788Z,882.00
2023-04-12T10:31:04.890Z,890.00
2023-04-12T10:32:04.991Z,817.00
2023-04-12T10:33:05.279Z,823.00
2023-04-12T10:34:04.837Z,842.00
2023-04-12T10:35:04.865Z,828.00
2023-04-12T10:36:04.960Z,838.00
2023-04-12T10:37:05.050Z,829.00
2023-04-12T10:38:05.019Z,843.00
2023-04-12T10:39:04.878Z,863.00
2023-04-12T10:40:04.946Z,902.00
2023-04-12T10:41:04.952Z,928.00
2023-04-12T10:42:04.952Z,939.00
2023-04-12T10:43:04.922Z,949.00
2023-04-12T10:44:04.948Z,980.00
2023-04-12T10:45:04.923Z,965.00
2023-04-12T10:46:04.961Z,961.00
2023-04-12T10:47:04.955Z,958.00
2023-04-12T10:48:05.018Z,956.00
2023-04-12T10:49:04.945Z,956.00
2023-04-12T10:50:04.910Z,958.00
2023-04-12T10:51:04.909Z,964.00
2023-04-12T10:52:04.932Z,963.00
2023-04-12T10:53:04.950Z,962.00
2023-04-12T10:54:04.942Z,965.00
2023-04-12T10:55:04.936Z,972.00
2023-04-12T10:56:04.950Z,977.00
2023-04-12T10:57:04.989Z,977.00
2023-04-12T10:58:05.028Z,972.00
2023-04-12T10:59:05.442Z,964.00
2023-04-12T11:00:05.039Z,955.00
2023-04-12T11:01:05.135Z,952.00
2023-04-12T11:02:05.190Z,950.00
2023-04-12T11:03:05.085Z,946.00
2023-04-12T11:04:05.159Z,944.00
2023-04-12T11:05:05.000Z,942.00
2023-04-12T11:06:19.929Z,945.00
2023-04-12T11:07:06.171Z,946.00
2023-04-12T11:08:04.844Z,944.00
2023-04-12T11:09:04.893Z,940.00
2023-04-12T11:10:04.895Z,937.00
2023-04-12T11:11:04.753Z,931.00
2023-04-12T11:13:23.577Z,933.00
2023-04-12T11:14:23.593Z,923.00
2023-04-12T11:15:23.544Z,922.00
2023-04-12T11:16:23.568Z,924.00
2023-04-12T11:17:24.185Z,918.00
2023-04-12T11:18:23.595Z,918.00
2023-04-12T11:19:23.678Z,916.00
2023-04-12T11:20:23.640Z,919.00
2023-04-12T11:21:23.501Z,916.00
2023-04-12T11:22:23.655Z,913.00
2023-04-12T11:23:23.513Z,908.00
2023-04-12T11:24:23.624Z,907.00
2023-04-12T11:25:23.564Z,907.00
2023-04-12T11:26:23.468Z,906.00
2023-04-12T11:27:23.508Z,905.00
2023-04-12T11:28:29.771Z,906.00
2023-04-12T11:29:24.422Z,904.00
2023-04-12T11:30:23.534Z,903.00
2023-04-12T11:31:23.807Z,901.00
2023-04-12T11:32:23.513Z,902.00
2023-04-12T11:33:23.357Z,898.00
2023-04-12T11:34:23.352Z,896.00
2023-04-12T11:35:23.318Z,896.00
2023-04-12T11:36:23.352Z,890.00
2023-04-12T11:37:23.305Z,889.00
2023-04-12T11:38:23.359Z,882.00
2023-04-12T11:39:23.288Z,882.00
2023-04-12T11:40:23.328Z,880.00
2023-04-12T11:41:23.271Z,878.00
2023-04-12T11:42:23.274Z,878.00
2023-04-12T11:43:23.256Z,872.00
2023-04-12T11:44:23.249Z,872.00
2023-04-12T11:45:23.268Z,871.00
2023-04-12T11:46:23.371Z,867.00
2023-04-12T11:47:23.366Z,864.00
2023-04-12T11:48:23.304Z,861.00
2023-04-12T11:49:23.355Z,860.00
2023-04-12T11:50:23.355Z,854.00
2023-04-12T11:51:23.426Z,852.00
2023-04-12T11:52:23.409Z,855.00
2023-04-12T11:53:23.430Z,853.00
2023-04-12T11:54:23.484Z,851.00
2023-04-12T11:55:24.221Z,850.00
2023-04-12T11:56:23.610Z,854.00
2023-04-12T11:57:23.550Z,850.00
2023-04-12T11:58:23.654Z,847.00
2023-04-12T11:59:24.225Z,841.00
2023-04-12T12:00:23.510Z,838.00
2023-04-12T12:01:23.510Z,837.00
2023-04-12T12:02:24.605Z,838.00
2023-04-12T12:03:23.770Z,836.00
2023-04-12T12:04:23.643Z,834.00
2023-04-12T12:05:23.692Z,832.00
2023-04-12T12:06:23.620Z,830.00
2023-04-12T12:07:24.048Z,828.00
2023-04-12T12:08:23.418Z,829.00
2023-04-12T12:09:23.415Z,827.00
2023-04-12T12:10:41.698Z,824.00
2023-04-12T12:11:24.377Z,822.00
2023-04-12T12:12:23.369Z,823.00
2023-04-12T12:13:23.388Z,824.00
2023-04-12T12:14:23.332Z,827.00
2023-04-12T12:15:23.316Z,822.00
2023-04-12T12:16:23.449Z,824.00
2023-04-12T12:17:23.335Z,823.00
2023-04-12T12:18:23.340Z,825.00
2023-04-12T12:19:23.338Z,825.00
2023-04-12T12:20:23.268Z,822.00
2023-04-12T12:21:23.372Z,821.00
2023-04-12T12:22:23.752Z,822.00
2023-04-12T12:23:23.234Z,817.00
2023-04-12T12:24:23.224Z,811.00